sensor_id;sensor_type;location;lat;lon;timestamp;temperature;humidity
23233;DHT22;11785;49.500;8.288;2023-11-21T00:00:13;9.20;99.90
23233;DHT22;11785;49.500;8.288;2023-11-21T00:02:40;9.20;99.90
23233;DHT22;11785;49.500;8.288;2023-11-21T00:05:11;9.20;99.90
23233;DHT22;11785;49.500;8.288;2023-11-21T00:07:38;9.20;99.90
23233;DHT22;11785;49.500;8.288;2023-11-21T00:10:04;9.10;99.90
23233;DHT22;11785;49.500;8.288;2023-11-21T00:12:31;9.20;99.90
23233;DHT22;11785;49.500;8.288;2023-11-21T00:14:57;9.20;99.90
23233;DHT22;11785;49.500;8.288;2023-11-21T00:17:23;9.20;99.90
23233;DHT22;11785;49.500;8.288;2023-11-21T00:19:48;9.20;99.90
23233;DHT22;11785;49.500;8.288;2023-11-21T00:22:14;9.20;99.90
23233;DHT22;11785;49.500;8.288;2023-11-21T00:24:40;9.20;99.90
23233;DHT22;11785;49.500;8.288;2023-11-21T00:27:05;9.20;99.90
23233;DHT22;11785;49.500;8.288;2023-11-21T00:29:31;9.20;99.90
23233;DHT22;11785;49.500;8.288;2023-11-21T00:31:56;9.20;99.90
23233;DHT22;11785;49.500;8.288;2023-11-21T00:34:22;9.20;99.90
23233;DHT22;11785;49.500;8.288;2023-11-21T00:36:47;9.20;99.90
23233;DHT22;11785;49.500;8.288;2023-11-21T00:39:13;9.20;99.90
23233;DHT22;11785;49.500;8.288;2023-11-21T00:41:39;9.10;99.90
23233;DHT22;11785;49.500;8.288;2023-11-21T00:44:04;9.10;99.90
23233;DHT22;11785;49.500;8.288;2023-11-21T00:46:30;9.10;99.90
23233;DHT22;11785;49.500;8.288;2023-11-21T00:48:56;9.10;99.90
23233;DHT22;11785;49.500;8.288;2023-11-21T00:51:22;9.00;99.90
23233;DHT22;11785;49.500;8.288;2023-11-21T00:53:47;9.00;99.90
23233;DHT22;11785;49.500;8.288;2023-11-21T00:56:13;9.00;99.90
23233;DHT22;11785;49.500;8.288;2023-11-21T00:58:39;8.90;99.90
23233;DHT22;11785;49.500;8.288;2023-11-21T01:01:09;8.90;99.90
23233;DHT22;11785;49.500;8.288;2023-11-21T01:03:35;8.90;99.90
23233;DHT22;11785;49.500;8.288;2023-11-21T01:06:00;8.90;99.90
23233;DHT22;11785;49.500;8.288;2023-11-21T01:08:26;8.90;99.90
23233;DHT22;11785;49.500;8.288;2023-11-21T01:10:51;8.90;99.90
23233;DHT22;11785;49.500;8.288;2023-11-21T01:13:17;9.00;99.90
23233;DHT22;11785;49.500;8.288;2023-11-21T01:15:43;9.00;99.90
23233;DHT22;11785;49.500;8.288;2023-11-21T01:18:09;9.00;99.90
23233;DHT22;11785;49.500;8.288;2023-11-21T01:20:34;8.90;99.90
23233;DHT22;11785;49.500;8.288;2023-11-21T01:23:00;9.00;99.90
23233;DHT22;11785;49.500;8.288;2023-11-21T01:25:26;9.00;99.90
23233;DHT22;11785;49.500;8.288;2023-11-21T01:27:52;9.00;99.90
23233;DHT22;11785;49.500;8.288;2023-11-21T01:30:18;9.00;99.90
23233;DHT22;11785;49.500;8.288;2023-11-21T01:32:43;9.00;99.90
23233;DHT22;11785;49.500;8.288;2023-11-21T01:35:09;9.00;99.90
23233;DHT22;11785;49.500;8.288;2023-11-21T01:37:36;9.00;99.90
23233;DHT22;11785;49.500;8.288;2023-11-21T01:40:02;9.00;99.90
23233;DHT22;11785;49.500;8.288;2023-11-21T01:42:30;9.00;99.90
23233;DHT22;11785;49.500;8.288;2023-11-21T01:44:56;9.00;99.90
23233;DHT22;11785;49.500;8.288;2023-11-21T01:47:21;9.00;99.90
23233;DHT22;11785;49.500;8.288;2023-11-21T01:49:47;9.00;99.90
23233;DHT22;11785;49.500;8.288;2023-11-21T01:52:13;9.00;99.90
23233;DHT22;11785;49.500;8.288;2023-11-21T01:54:41;9.00;99.90
23233;DHT22;11785;49.500;8.288;2023-11-21T01:57:07;9.00;99.90
23233;DHT22;11785;49.500;8.288;2023-11-21T01:59:36;9.00;99.90
23233;DHT22;11785;49.500;8.288;2023-11-21T02:02:04;9.00;99.90
23233;DHT22;11785;49.500;8.288;2023-11-21T02:04:31;9.00;99.90
23233;DHT22;11785;49.500;8.288;2023-11-21T02:06:57;9.00;99.90
23233;DHT22;11785;49.500;8.288;2023-11-21T02:09:27;9.00;99.90
23233;DHT22;11785;49.500;8.288;2023-11-21T02:11:54;9.00;99.90
23233;DHT22;11785;49.500;8.288;2023-11-21T02:14:20;9.00;99.90
23233;DHT22;11785;49.500;8.288;2023-11-21T02:16:50;9.00;99.90
23233;DHT22;11785;49.500;8.288;2023-11-21T02:19:21;9.00;99.90
23233;DHT22;11785;49.500;8.288;2023-11-21T02:21:50;9.00;99.90
23233;DHT22;11785;49.500;8.288;2023-11-21T02:24:18;9.00;99.90
23233;DHT22;11785;49.500;8.288;2023-11-21T02:26:44;9.00;99.90
23233;DHT22;11785;49.500;8.288;2023-11-21T02:29:11;9.00;99.90
23233;DHT22;11785;49.500;8.288;2023-11-21T02:31:38;9.10;99.90
23233;DHT22;11785;49.500;8.288;2023-11-21T02:34:16;9.10;99.90
23233;DHT22;11785;49.500;8.288;2023-11-21T02:36:42;9.00;99.90
23233;DHT22;11785;49.500;8.288;2023-11-21T02:39:09;9.00;99.90
23233;DHT22;11785;49.500;8.288;2023-11-21T02:41:35;9.10;99.90
23233;DHT22;11785;49.500;8.288;2023-11-21T02:44:01;9.00;99.90
23233;DHT22;11785;49.500;8.288;2023-11-21T02:46:26;9.00;99.90
23233;DHT22;11785;49.500;8.288;2023-11-21T02:48:52;9.10;99.90
23233;DHT22;11785;49.500;8.288;2023-11-21T02:51:21;9.10;99.90
23233;DHT22;11785;49.500;8.288;2023-11-21T02:53:47;9.10;99.90
23233;DHT22;11785;49.500;8.288;2023-11-21T02:56:12;9.10;99.90
23233;DHT22;11785;49.500;8.288;2023-11-21T02:58:41;9.00;99.90
23233;DHT22;11785;49.500;8.288;2023-11-21T03:01:09;9.10;99.90
23233;DHT22;11785;49.500;8.288;2023-11-21T03:03:34;9.10;99.90
23233;DHT22;11785;49.500;8.288;2023-11-21T03:06:02;9.10;99.90
23233;DHT22;11785;49.500;8.288;2023-11-21T03:08:28;9.00;99.90
23233;DHT22;11785;49.500;8.288;2023-11-21T03:10:53;9.00;99.90
23233;DHT22;11785;49.500;8.288;2023-11-21T03:13:19;9.00;99.90
23233;DHT22;11785;49.500;8.288;2023-11-21T03:15:44;9.00;99.90
23233;DHT22;11785;49.500;8.288;2023-11-21T03:18:10;9.00;99.90
23233;DHT22;11785;49.500;8.288;2023-11-21T03:20:35;9.10;99.90
23233;DHT22;11785;49.500;8.288;2023-11-21T03:23:01;9.00;99.90
23233;DHT22;11785;49.500;8.288;2023-11-21T03:25:27;9.00;99.90
23233;DHT22;11785;49.500;8.288;2023-11-21T03:27:52;9.00;99.90
23233;DHT22;11785;49.500;8.288;2023-11-21T03:30:18;9.00;99.90
23233;DHT22;11785;49.500;8.288;2023-11-21T03:32:44;9.00;99.90
23233;DHT22;11785;49.500;8.288;2023-11-21T03:35:10;9.00;99.90
23233;DHT22;11785;49.500;8.288;2023-11-21T03:37:35;9.00;99.90
23233;DHT22;11785;49.500;8.288;2023-11-21T03:40:01;9.00;99.90
23233;DHT22;11785;49.500;8.288;2023-11-21T03:42:29;9.00;99.90
23233;DHT22;11785;49.500;8.288;2023-11-21T03:44:56;9.00;99.90
23233;DHT22;11785;49.500;8.288;2023-11-21T03:47:21;9.00;99.90
23233;DHT22;11785;49.500;8.288;2023-11-21T03:49:47;9.00;99.90
23233;DHT22;11785;49.500;8.288;2023-11-21T03:52:12;9.00;99.90
23233;DHT22;11785;49.500;8.288;2023-11-21T03:54:38;9.00;99.90
23233;DHT22;11785;49.500;8.288;2023-11-21T03:57:04;9.00;99.90
23233;DHT22;11785;49.500;8.288;2023-11-21T03:59:29;9.00;99.90
23233;DHT22;11785;49.500;8.288;2023-11-21T04:01:56;9.00;99.90
23233;DHT22;11785;49.500;8.288;2023-11-21T04:04:22;9.00;99.90
23233;DHT22;11785;49.500;8.288;2023-11-21T04:06:48;9.00;99.90
23233;DHT22;11785;49.500;8.288;2023-11-21T04:09:13;9.00;99.90
23233;DHT22;11785;49.500;8.288;2023-11-21T04:11:39;9.00;99.90
23233;DHT22;11785;49.500;8.288;2023-11-21T04:14:04;9.00;99.90
23233;DHT22;11785;49.500;8.288;2023-11-21T04:16:30;9.00;99.90
23233;DHT22;11785;49.500;8.288;2023-11-21T04:18:55;9.00;99.90
23233;DHT22;11785;49.500;8.288;2023-11-21T04:21:21;9.10;99.90
23233;DHT22;11785;49.500;8.288;2023-11-21T04:23:46;9.10;99.90
23233;DHT22;11785;49.500;8.288;2023-11-21T04:26:12;9.00;99.90
23233;DHT22;11785;49.500;8.288;2023-11-21T04:28:37;9.00;99.90
23233;DHT22;11785;49.500;8.288;2023-11-21T04:31:03;9.00;99.90
23233;DHT22;11785;49.500;8.288;2023-11-21T04:33:28;9.00;99.90
23233;DHT22;11785;49.500;8.288;2023-11-21T04:35:54;9.00;99.90
23233;DHT22;11785;49.500;8.288;2023-11-21T04:38:20;9.00;99.90
23233;DHT22;11785;49.500;8.288;2023-11-21T04:40:45;9.00;99.90
23233;DHT22;11785;49.500;8.288;2023-11-21T04:43:11;9.10;99.90
23233;DHT22;11785;49.500;8.288;2023-11-21T04:45:36;9.10;99.90
23233;DHT22;11785;49.500;8.288;2023-11-21T04:48:02;9.10;99.90
23233;DHT22;11785;49.500;8.288;2023-11-21T04:50:28;9.10;99.90
23233;DHT22;11785;49.500;8.288;2023-11-21T04:52:53;9.10;99.90
23233;DHT22;11785;49.500;8.288;2023-11-21T04:55:19;9.10;99.90
23233;DHT22;11785;49.500;8.288;2023-11-21T04:57:45;9.10;99.90
23233;DHT22;11785;49.500;8.288;2023-11-21T05:00:11;9.10;99.90
23233;DHT22;11785;49.500;8.288;2023-11-21T05:02:37;9.10;99.90
23233;DHT22;11785;49.500;8.288;2023-11-21T05:05:03;9.10;99.90
23233;DHT22;11785;49.500;8.288;2023-11-21T05:07:32;9.10;99.90
23233;DHT22;11785;49.500;8.288;2023-11-21T05:09:57;9.10;99.90
23233;DHT22;11785;49.500;8.288;2023-11-21T05:12:24;9.10;99.90
23233;DHT22;11785;49.500;8.288;2023-11-21T05:14:50;9.10;99.90
23233;DHT22;11785;49.500;8.288;2023-11-21T05:17:16;9.20;99.90
23233;DHT22;11785;49.500;8.288;2023-11-21T05:19:42;9.20;99.90
23233;DHT22;11785;49.500;8.288;2023-11-21T05:22:10;9.20;99.90
23233;DHT22;11785;49.500;8.288;2023-11-21T05:24:37;9.20;99.90
23233;DHT22;11785;49.500;8.288;2023-11-21T05:27:04;9.20;99.90
23233;DHT22;11785;49.500;8.288;2023-11-21T05:29:30;9.10;99.90
23233;DHT22;11785;49.500;8.288;2023-11-21T05:31:55;9.10;99.90
23233;DHT22;11785;49.500;8.288;2023-11-21T05:34:21;9.10;99.90
23233;DHT22;11785;49.500;8.288;2023-11-21T05:36:49;9.10;99.90
23233;DHT22;11785;49.500;8.288;2023-11-21T05:39:15;9.10;99.90
23233;DHT22;11785;49.500;8.288;2023-11-21T05:41:42;9.10;99.90
23233;DHT22;11785;49.500;8.288;2023-11-21T05:44:08;9.10;99.90
23233;DHT22;11785;49.500;8.288;2023-11-21T05:46:34;9.10;99.90
23233;DHT22;11785;49.500;8.288;2023-11-21T05:49:00;9.10;99.90
23233;DHT22;11785;49.500;8.288;2023-11-21T05:51:25;9.10;99.90
23233;DHT22;11785;49.500;8.288;2023-11-21T05:53:51;9.10;99.90
23233;DHT22;11785;49.500;8.288;2023-11-21T05:56:16;9.10;99.90
23233;DHT22;11785;49.500;8.288;2023-11-21T05:58:43;9.10;99.90
23233;DHT22;11785;49.500;8.288;2023-11-21T06:01:08;9.10;99.90
23233;DHT22;11785;49.500;8.288;2023-11-21T06:03:35;9.10;99.90
23233;DHT22;11785;49.500;8.288;2023-11-21T06:06:00;9.10;99.90
23233;DHT22;11785;49.500;8.288;2023-11-21T06:08:26;9.10;99.90
23233;DHT22;11785;49.500;8.288;2023-11-21T06:10:52;9.10;99.90
23233;DHT22;11785;49.500;8.288;2023-11-21T06:13:17;9.10;99.90
23233;DHT22;11785;49.500;8.288;2023-11-21T06:15:46;9.10;99.90
23233;DHT22;11785;49.500;8.288;2023-11-21T06:18:11;9.10;99.90
23233;DHT22;11785;49.500;8.288;2023-11-21T06:20:37;9.10;99.90
23233;DHT22;11785;49.500;8.288;2023-11-21T06:23:02;9.10;99.90
23233;DHT22;11785;49.500;8.288;2023-11-21T06:25:29;9.10;99.90
23233;DHT22;11785;49.500;8.288;2023-11-21T06:27:55;9.20;99.90
23233;DHT22;11785;49.500;8.288;2023-11-21T06:30:21;9.10;99.90
23233;DHT22;11785;49.500;8.288;2023-11-21T06:32:48;9.20;99.90
23233;DHT22;11785;49.500;8.288;2023-11-21T06:35:15;9.20;99.90
23233;DHT22;11785;49.500;8.288;2023-11-21T06:37:41;9.20;99.90
23233;DHT22;11785;49.500;8.288;2023-11-21T06:40:07;9.20;99.90
23233;DHT22;11785;49.500;8.288;2023-11-21T06:42:32;9.20;99.90
23233;DHT22;11785;49.500;8.288;2023-11-21T06:44:59;9.20;99.90
23233;DHT22;11785;49.500;8.288;2023-11-21T06:47:25;9.20;99.90
23233;DHT22;11785;49.500;8.288;2023-11-21T06:49:51;9.30;99.90
23233;DHT22;11785;49.500;8.288;2023-11-21T06:52:18;9.30;99.90
23233;DHT22;11785;49.500;8.288;2023-11-21T06:54:44;9.20;99.90
23233;DHT22;11785;49.500;8.288;2023-11-21T06:57:10;9.30;99.90
23233;DHT22;11785;49.500;8.288;2023-11-21T06:59:36;9.30;99.90
23233;DHT22;11785;49.500;8.288;2023-11-21T07:02:01;9.30;99.90
23233;DHT22;11785;49.500;8.288;2023-11-21T07:04:27;9.30;99.90
23233;DHT22;11785;49.500;8.288;2023-11-21T07:06:56;9.30;99.90
23233;DHT22;11785;49.500;8.288;2023-11-21T07:09:21;9.30;99.90
23233;DHT22;11785;49.500;8.288;2023-11-21T07:11:48;9.30;99.90
23233;DHT22;11785;49.500;8.288;2023-11-21T07:14:14;9.30;99.90
23233;DHT22;11785;49.500;8.288;2023-11-21T07:16:40;9.30;99.90
23233;DHT22;11785;49.500;8.288;2023-11-21T07:19:06;9.30;99.90
23233;DHT22;11785;49.500;8.288;2023-11-21T07:21:32;9.30;99.90
23233;DHT22;11785;49.500;8.288;2023-11-21T07:23:59;9.30;99.90
23233;DHT22;11785;49.500;8.288;2023-11-21T07:26:26;9.40;99.90
23233;DHT22;11785;49.500;8.288;2023-11-21T07:28:52;9.40;99.90
23233;DHT22;11785;49.500;8.288;2023-11-21T07:31:17;9.40;99.90
23233;DHT22;11785;49.500;8.288;2023-11-21T07:33:43;9.40;99.90
23233;DHT22;11785;49.500;8.288;2023-11-21T07:36:08;9.40;99.90
23233;DHT22;11785;49.500;8.288;2023-11-21T07:38:37;9.40;99.90
23233;DHT22;11785;49.500;8.288;2023-11-21T07:41:02;9.50;99.90
23233;DHT22;11785;49.500;8.288;2023-11-21T07:43:28;9.50;99.90
23233;DHT22;11785;49.500;8.288;2023-11-21T07:46:00;9.50;99.90
23233;DHT22;11785;49.500;8.288;2023-11-21T07:48:26;9.50;99.90
23233;DHT22;11785;49.500;8.288;2023-11-21T07:50:51;9.60;99.90
23233;DHT22;11785;49.500;8.288;2023-11-21T07:53:17;9.60;99.90
23233;DHT22;11785;49.500;8.288;2023-11-21T07:55:42;9.60;99.90
23233;DHT22;11785;49.500;8.288;2023-11-21T07:58:12;9.60;99.90
23233;DHT22;11785;49.500;8.288;2023-11-21T08:00:38;9.60;99.90
23233;DHT22;11785;49.500;8.288;2023-11-21T08:03:04;9.60;99.90
23233;DHT22;11785;49.500;8.288;2023-11-21T08:05:31;9.60;99.90
23233;DHT22;11785;49.500;8.288;2023-11-21T08:07:57;9.60;99.90
23233;DHT22;11785;49.500;8.288;2023-11-21T08:10:22;9.70;99.90
23233;DHT22;11785;49.500;8.288;2023-11-21T08:12:48;9.70;99.90
23233;DHT22;11785;49.500;8.288;2023-11-21T08:15:16;9.70;99.90
23233;DHT22;11785;49.500;8.288;2023-11-21T08:17:42;9.70;99.90
23233;DHT22;11785;49.500;8.288;2023-11-21T08:20:08;9.70;99.90
23233;DHT22;11785;49.500;8.288;2023-11-21T08:22:36;9.70;99.90
23233;DHT22;11785;49.500;8.288;2023-11-21T08:25:01;9.70;99.90
23233;DHT22;11785;49.500;8.288;2023-11-21T08:27:29;9.70;99.90
23233;DHT22;11785;49.500;8.288;2023-11-21T08:29:54;9.70;99.90
23233;DHT22;11785;49.500;8.288;2023-11-21T08:32:21;9.70;99.90
23233;DHT22;11785;49.500;8.288;2023-11-21T08:34:47;9.60;99.90
23233;DHT22;11785;49.500;8.288;2023-11-21T08:37:16;9.60;99.90
23233;DHT22;11785;49.500;8.288;2023-11-21T08:39:43;9.60;99.90
23233;DHT22;11785;49.500;8.288;2023-11-21T08:42:09;9.50;99.90
23233;DHT22;11785;49.500;8.288;2023-11-21T08:44:34;9.50;99.90
23233;DHT22;11785;49.500;8.288;2023-11-21T08:47:00;9.40;99.90
23233;DHT22;11785;49.500;8.288;2023-11-21T08:49:26;9.40;99.90
23233;DHT22;11785;49.500;8.288;2023-11-21T08:51:53;9.40;99.90
23233;DHT22;11785;49.500;8.288;2023-11-21T08:54:20;9.40;99.90
23233;DHT22;11785;49.500;8.288;2023-11-21T08:56:46;9.50;99.90
23233;DHT22;11785;49.500;8.288;2023-11-21T08:59:12;9.40;99.90
23233;DHT22;11785;49.500;8.288;2023-11-21T09:01:40;9.40;99.90
23233;DHT22;11785;49.500;8.288;2023-11-21T09:04:06;9.40;99.90
23233;DHT22;11785;49.500;8.288;2023-11-21T09:06:31;9.40;99.90
23233;DHT22;11785;49.500;8.288;2023-11-21T09:08:57;9.40;99.90
23233;DHT22;11785;49.500;8.288;2023-11-21T09:11:23;9.40;99.90
23233;DHT22;11785;49.500;8.288;2023-11-21T09:13:50;9.40;99.90
23233;DHT22;11785;49.500;8.288;2023-11-21T09:16:16;9.40;99.90
23233;DHT22;11785;49.500;8.288;2023-11-21T09:18:42;9.40;99.90
23233;DHT22;11785;49.500;8.288;2023-11-21T09:21:08;9.50;99.90
23233;DHT22;11785;49.500;8.288;2023-11-21T09:23:35;9.50;99.90
23233;DHT22;11785;49.500;8.288;2023-11-21T09:26:00;9.50;99.90
23233;DHT22;11785;49.500;8.288;2023-11-21T09:28:26;9.50;99.90
23233;DHT22;11785;49.500;8.288;2023-11-21T09:30:55;9.60;99.90
23233;DHT22;11785;49.500;8.288;2023-11-21T09:33:21;9.60;99.90
23233;DHT22;11785;49.500;8.288;2023-11-21T09:35:47;9.70;99.90
23233;DHT22;11785;49.500;8.288;2023-11-21T09:38:14;9.70;99.90
23233;DHT22;11785;49.500;8.288;2023-11-21T09:40:39;9.80;99.90
23233;DHT22;11785;49.500;8.288;2023-11-21T09:43:08;9.90;99.90
23233;DHT22;11785;49.500;8.288;2023-11-21T09:45:43;9.90;99.90
23233;DHT22;11785;49.500;8.288;2023-11-21T09:48:10;10.00;99.90
23233;DHT22;11785;49.500;8.288;2023-11-21T09:50:36;9.90;99.90
23233;DHT22;11785;49.500;8.288;2023-11-21T09:55:47;9.90;99.90
23233;DHT22;11785;49.500;8.288;2023-11-21T09:58:14;9.80;99.90
23233;DHT22;11785;49.500;8.288;2023-11-21T10:00:41;9.80;99.90
23233;DHT22;11785;49.500;8.288;2023-11-21T10:03:07;9.80;99.90
23233;DHT22;11785;49.500;8.288;2023-11-21T10:05:34;9.80;99.90
23233;DHT22;11785;49.500;8.288;2023-11-21T10:08:00;9.90;99.90
23233;DHT22;11785;49.500;8.288;2023-11-21T10:10:26;9.80;99.90
23233;DHT22;11785;49.500;8.288;2023-11-21T10:12:55;9.80;99.90
23233;DHT22;11785;49.500;8.288;2023-11-21T10:15:22;9.80;99.90
23233;DHT22;11785;49.500;8.288;2023-11-21T10:17:49;9.80;99.90
23233;DHT22;11785;49.500;8.288;2023-11-21T10:20:16;9.70;99.90
23233;DHT22;11785;49.500;8.288;2023-11-21T10:22:43;9.70;99.90
23233;DHT22;11785;49.500;8.288;2023-11-21T10:25:12;9.70;99.90
23233;DHT22;11785;49.500;8.288;2023-11-21T10:27:42;9.70;99.90
23233;DHT22;11785;49.500;8.288;2023-11-21T10:30:09;9.70;99.90
23233;DHT22;11785;49.500;8.288;2023-11-21T10:32:41;9.70;99.90
23233;DHT22;11785;49.500;8.288;2023-11-21T10:35:08;9.70;99.90
23233;DHT22;11785;49.500;8.288;2023-11-21T10:37:40;9.70;99.90
23233;DHT22;11785;49.500;8.288;2023-11-21T10:40:07;9.70;99.90
23233;DHT22;11785;49.500;8.288;2023-11-21T10:42:33;9.70;99.90
23233;DHT22;11785;49.500;8.288;2023-11-21T10:44:59;9.70;99.90
23233;DHT22;11785;49.500;8.288;2023-11-21T10:47:26;9.70;99.90
23233;DHT22;11785;49.500;8.288;2023-11-21T10:49:52;9.70;99.90
23233;DHT22;11785;49.500;8.288;2023-11-21T10:52:19;9.80;99.90
23233;DHT22;11785;49.500;8.288;2023-11-21T10:54:45;9.70;99.90
23233;DHT22;11785;49.500;8.288;2023-11-21T10:57:15;9.80;99.90
23233;DHT22;11785;49.500;8.288;2023-11-21T10:59:46;9.90;99.90
23233;DHT22;11785;49.500;8.288;2023-11-21T11:02:23;10.10;99.90
23233;DHT22;11785;49.500;8.288;2023-11-21T11:04:51;10.20;99.90
23233;DHT22;11785;49.500;8.288;2023-11-21T11:07:17;10.30;99.90
23233;DHT22;11785;49.500;8.288;2023-11-21T11:09:46;10.30;99.90
23233;DHT22;11785;49.500;8.288;2023-11-21T11:12:12;10.30;99.90
23233;DHT22;11785;49.500;8.288;2023-11-21T11:14:41;10.40;99.90
23233;DHT22;11785;49.500;8.288;2023-11-21T11:17:07;10.40;99.90
23233;DHT22;11785;49.500;8.288;2023-11-21T11:19:34;10.50;99.90
23233;DHT22;11785;49.500;8.288;2023-11-21T11:24:57;10.80;99.90
23233;DHT22;11785;49.500;8.288;2023-11-21T11:27:44;11.00;99.90
23233;DHT22;11785;49.500;8.288;2023-11-21T11:38:33;11.80;99.90
23233;DHT22;11785;49.500;8.288;2023-11-21T11:41:05;11.90;99.90
23233;DHT22;11785;49.500;8.288;2023-11-21T11:43:31;11.70;99.90
23233;DHT22;11785;49.500;8.288;2023-11-21T11:45:59;11.70;99.90
23233;DHT22;11785;49.500;8.288;2023-11-21T11:48:25;11.60;99.90
23233;DHT22;11785;49.500;8.288;2023-11-21T11:51:10;11.70;99.90
23233;DHT22;11785;49.500;8.288;2023-11-21T11:53:41;11.90;99.70
23233;DHT22;11785;49.500;8.288;2023-11-21T11:56:30;12.00;99.20
23233;DHT22;11785;49.500;8.288;2023-11-21T11:58:58;12.00;98.60
23233;DHT22;11785;49.500;8.288;2023-11-21T12:01:25;12.10;98.50
23233;DHT22;11785;49.500;8.288;2023-11-21T12:06:36;12.20;98.00
23233;DHT22;11785;49.500;8.288;2023-11-21T12:09:02;12.20;98.40
23233;DHT22;11785;49.500;8.288;2023-11-21T12:11:31;12.30;98.20
23233;DHT22;11785;49.500;8.288;2023-11-21T12:13:58;12.50;97.30
23233;DHT22;11785;49.500;8.288;2023-11-21T12:16:27;12.60;96.20
23233;DHT22;11785;49.500;8.288;2023-11-21T12:18:53;12.60;96.20
23233;DHT22;11785;49.500;8.288;2023-11-21T12:21:22;12.70;95.60
23233;DHT22;11785;49.500;8.288;2023-11-21T12:23:48;12.90;94.00
23233;DHT22;11785;49.500;8.288;2023-11-21T12:26:14;12.90;94.10
23233;DHT22;11785;49.500;8.288;2023-11-21T12:28:39;13.00;93.90
23233;DHT22;11785;49.500;8.288;2023-11-21T12:31:05;13.20;93.00
23233;DHT22;11785;49.500;8.288;2023-11-21T12:33:35;13.80;91.20
23233;DHT22;11785;49.500;8.288;2023-11-21T12:36:01;14.40;84.10
23233;DHT22;11785;49.500;8.288;2023-11-21T12:38:34;14.70;80.90
23233;DHT22;11785;49.500;8.288;2023-11-21T12:41:00;14.60;81.20
23233;DHT22;11785;49.500;8.288;2023-11-21T12:43:26;14.30;83.50
23233;DHT22;11785;49.500;8.288;2023-11-21T12:46:07;14.00;86.80
23233;DHT22;11785;49.500;8.288;2023-11-21T12:48:37;13.40;89.70
23233;DHT22;11785;49.500;8.288;2023-11-21T12:51:05;13.10;91.70
23233;DHT22;11785;49.500;8.288;2023-11-21T12:53:32;13.10;91.40
23233;DHT22;11785;49.500;8.288;2023-11-21T12:56:05;13.00;92.10
23233;DHT22;11785;49.500;8.288;2023-11-21T12:58:31;13.00;92.00
23233;DHT22;11785;49.500;8.288;2023-11-21T13:00:59;13.10;92.00
23233;DHT22;11785;49.500;8.288;2023-11-21T13:03:25;13.30;91.50
23233;DHT22;11785;49.500;8.288;2023-11-21T13:05:53;13.40;90.80
23233;DHT22;11785;49.500;8.288;2023-11-21T13:08:23;13.60;89.00
23233;DHT22;11785;49.500;8.288;2023-11-21T13:10:54;13.40;89.60
23233;DHT22;11785;49.500;8.288;2023-11-21T13:13:21;13.30;90.40
23233;DHT22;11785;49.500;8.288;2023-11-21T13:15:49;13.10;91.10
23233;DHT22;11785;49.500;8.288;2023-11-21T13:18:15;13.10;90.70
23233;DHT22;11785;49.500;8.288;2023-11-21T13:20:42;13.10;90.90
23233;DHT22;11785;49.500;8.288;2023-11-21T13:23:11;13.10;91.40
23233;DHT22;11785;49.500;8.288;2023-11-21T13:25:38;13.10;90.70
23233;DHT22;11785;49.500;8.288;2023-11-21T13:28:06;13.00;91.10
23233;DHT22;11785;49.500;8.288;2023-11-21T13:30:32;13.00;90.30
23233;DHT22;11785;49.500;8.288;2023-11-21T13:33:02;13.00;90.50
23233;DHT22;11785;49.500;8.288;2023-11-21T13:35:30;12.90;90.90
23233;DHT22;11785;49.500;8.288;2023-11-21T13:38:06;12.90;90.90
23233;DHT22;11785;49.500;8.288;2023-11-21T13:40:33;12.70;91.00
23233;DHT22;11785;49.500;8.288;2023-11-21T13:43:05;12.60;91.70
23233;DHT22;11785;49.500;8.288;2023-11-21T13:45:31;12.70;91.70
23233;DHT22;11785;49.500;8.288;2023-11-21T13:47:56;12.70;91.20
23233;DHT22;11785;49.500;8.288;2023-11-21T13:50:24;12.90;90.30
23233;DHT22;11785;49.500;8.288;2023-11-21T13:52:55;12.90;90.60
23233;DHT22;11785;49.500;8.288;2023-11-21T13:55:21;12.90;90.20
23233;DHT22;11785;49.500;8.288;2023-11-21T13:57:50;12.70;91.30
23233;DHT22;11785;49.500;8.288;2023-11-21T14:00:18;12.70;91.50
23233;DHT22;11785;49.500;8.288;2023-11-21T14:03:02;12.70;91.30
23233;DHT22;11785;49.500;8.288;2023-11-21T14:05:31;12.80;90.90
23233;DHT22;11785;49.500;8.288;2023-11-21T14:07:59;12.80;91.20
23233;DHT22;11785;49.500;8.288;2023-11-21T14:10:33;12.70;91.70
23233;DHT22;11785;49.500;8.288;2023-11-21T14:13:06;12.50;92.30
23233;DHT22;11785;49.500;8.288;2023-11-21T14:15:32;12.50;92.40
23233;DHT22;11785;49.500;8.288;2023-11-21T14:17:59;12.50;92.80
23233;DHT22;11785;49.500;8.288;2023-11-21T14:20:25;12.40;93.50
23233;DHT22;11785;49.500;8.288;2023-11-21T14:22:51;12.40;93.70
23233;DHT22;11785;49.500;8.288;2023-11-21T14:25:17;12.30;94.10
23233;DHT22;11785;49.500;8.288;2023-11-21T14:27:43;12.20;94.30
23233;DHT22;11785;49.500;8.288;2023-11-21T14:30:09;12.10;94.90
23233;DHT22;11785;49.500;8.288;2023-11-21T14:32:37;12.10;95.20
23233;DHT22;11785;49.500;8.288;2023-11-21T14:35:03;12.00;95.10
23233;DHT22;11785;49.500;8.288;2023-11-21T14:37:29;12.00;95.10
23233;DHT22;11785;49.500;8.288;2023-11-21T14:39:55;11.90;95.40
23233;DHT22;11785;49.500;8.288;2023-11-21T14:42:21;11.80;96.10
23233;DHT22;11785;49.500;8.288;2023-11-21T14:44:50;11.80;96.20
23233;DHT22;11785;49.500;8.288;2023-11-21T14:47:17;11.70;96.40
23233;DHT22;11785;49.500;8.288;2023-11-21T14:49:45;11.60;96.90
23233;DHT22;11785;49.500;8.288;2023-11-21T14:52:24;11.60;97.20
23233;DHT22;11785;49.500;8.288;2023-11-21T14:55:03;11.50;97.70
23233;DHT22;11785;49.500;8.288;2023-11-21T14:57:49;11.40;96.30
23233;DHT22;11785;49.500;8.288;2023-11-21T15:00:16;11.30;97.00
23233;DHT22;11785;49.500;8.288;2023-11-21T15:03:02;11.20;97.40
23233;DHT22;11785;49.500;8.288;2023-11-21T15:05:28;11.10;97.60
23233;DHT22;11785;49.500;8.288;2023-11-21T15:07:54;11.00;97.70
23233;DHT22;11785;49.500;8.288;2023-11-21T15:10:24;11.00;97.60
23233;DHT22;11785;49.500;8.288;2023-11-21T15:13:10;11.00;97.80
23233;DHT22;11785;49.500;8.288;2023-11-21T15:15:36;10.90;98.30
23233;DHT22;11785;49.500;8.288;2023-11-21T15:18:03;10.90;98.50
23233;DHT22;11785;49.500;8.288;2023-11-21T15:20:28;10.80;98.50
23233;DHT22;11785;49.500;8.288;2023-11-21T15:22:54;10.80;98.70
23233;DHT22;11785;49.500;8.288;2023-11-21T15:25:20;10.80;98.70
23233;DHT22;11785;49.500;8.288;2023-11-21T15:27:46;10.80;98.90
23233;DHT22;11785;49.500;8.288;2023-11-21T15:30:15;10.70;99.40
23233;DHT22;11785;49.500;8.288;2023-11-21T15:32:41;10.70;99.30
23233;DHT22;11785;49.500;8.288;2023-11-21T15:35:07;10.70;99.60
23233;DHT22;11785;49.500;8.288;2023-11-21T15:37:36;10.60;99.90
23233;DHT22;11785;49.500;8.288;2023-11-21T15:40:01;10.60;99.90
23233;DHT22;11785;49.500;8.288;2023-11-21T15:42:31;10.60;99.90
23233;DHT22;11785;49.500;8.288;2023-11-21T15:44:57;10.60;99.90
23233;DHT22;11785;49.500;8.288;2023-11-21T15:47:22;10.60;99.90
23233;DHT22;11785;49.500;8.288;2023-11-21T15:49:48;10.50;99.90
23233;DHT22;11785;49.500;8.288;2023-11-21T15:52:13;10.50;99.90
23233;DHT22;11785;49.500;8.288;2023-11-21T15:54:40;10.50;99.90
23233;DHT22;11785;49.500;8.288;2023-11-21T15:57:05;10.40;99.90